F45

North Palm Beach County General Aviation Airport

West Palm Beach, Florida, USA
METAR KF45 241955Z AUTO 09011G14KT 10SM CLR 27/25 A2999 RMK AO2 P0015
Observed Flight Rules
Sep-24 @ 19:55 UTC (14 minutes ago) Visual Flight Rules
Wind Visibility Clouds
90° at 11 knots
 Gusting to 14 knots
10 miles
  • Clear skies
Temperatures Readings Precipitation
Current 27°C / 81°F
Dewpoint 25°C / 77°F
Humidity 89%
Altimeter 29.99" Hg
Pressure 1016 hPa
Elevation 7
Current Rain 0.15
METAR KF45 241955Z AUTO 09011G14KT 10SM CLR 27/25 A2999 RMK AO2 P0015
Observed Flight Rules
Sep-24 @ 19:55 UTC
(14 minutes ago)
VFR
Wind Visibility
90° at 11 knots
 Gusting to 14 knots
10 miles
Clouds
  • Clear skies
Temperature Dewpoint
27°C / 81°F 25°C / 77°F
Humidity Altimeter Pressure
89% 29.99" Hg 1016 hPa
Current Rain
0.15